Flight NumberPSR9999 Date29.07.2020
Departure AirportKSFO Arrival AirportKDEN
Departure Time14.18Arrival Time16.26
Pilot In CommandJason Ballard Block Time2.10 Hours
Pilot Rating100 % AircraftHA-LOB [ 737-700C ]


Distance839.00 Nm. Passengers0
Fuel Used5,107 Kg. Cargo354 Kg
Expense Details Income Details
Fuel Cost7,392 v$Ticket Sales0 v$
Pilot Salary9,032 v$ Cargo income627.00 v$
Crew Salary0 v$ Bonus15,053 v$
Gross Profit81,288 v$ ( 81,288,000 v$ )

Client Versionv2.3.3 Max Simrate1
Flight Critique Pilot CommentsPMDG B737, Visual 17R, KDEN 291553Z 25010G14KT 10SM FEW100 FEW150 29/08 A3007.

[ Back ]
FSA VA Integration Pack
Copyright © 2010 FSAirlines.net. Version : 0.1.1